createdAt,value
2017-12-15T00:02:21.680Z,19.07
2017-12-15T00:04:49.147Z,20.93
2017-12-15T00:07:15.773Z,18.83
2017-12-15T00:09:42.290Z,18.87
2017-12-15T00:12:09.463Z,25.97
2017-12-15T00:14:36.012Z,16.87
2017-12-15T00:17:04.191Z,21.03
2017-12-15T00:19:31.462Z,19.07
2017-12-15T00:21:57.877Z,18.03
2017-12-15T00:24:26.111Z,17.53
2017-12-15T00:26:52.586Z,21.13
2017-12-15T00:29:19.530Z,18.00
2017-12-15T00:31:45.964Z,16.60
2017-12-15T00:34:14.065Z,17.27
2017-12-15T00:36:41.516Z,20.17
2017-12-15T00:39:07.964Z,16.80
2017-12-15T00:41:34.348Z,21.00
2017-12-15T00:44:01.388Z,20.90
2017-12-15T00:46:29.268Z,16.87
2017-12-15T00:48:55.719Z,16.30
2017-12-15T00:51:22.198Z,15.63
2017-12-15T00:53:48.769Z,19.00
2017-12-15T00:56:15.961Z,14.20
2017-12-15T00:58:42.739Z,20.33
2017-12-15T01:01:09.399Z,25.47
2017-12-15T01:03:36.904Z,17.30
2017-12-15T01:06:03.456Z,21.73
2017-12-15T01:08:30.059Z,22.63
2017-12-15T01:10:56.600Z,20.63
2017-12-15T01:13:23.144Z,19.30
2017-12-15T01:15:49.585Z,27.90
2017-12-15T01:18:16.061Z,26.20
2017-12-15T01:20:42.441Z,27.50
2017-12-15T01:23:08.874Z,24.80
2017-12-15T01:25:36.284Z,21.80
2017-12-15T01:28:03.008Z,24.90
2017-12-15T01:30:30.281Z,24.77
2017-12-15T01:32:57.499Z,26.70
2017-12-15T01:35:24.824Z,22.53
2017-12-15T01:37:51.442Z,22.93
2017-12-15T01:40:18.613Z,29.63
2017-12-15T01:42:45.795Z,27.73
2017-12-15T01:45:12.508Z,21.13
2017-12-15T01:47:39.119Z,31.20
2017-12-15T01:50:06.484Z,25.47
2017-12-15T01:52:33.399Z,24.50
2017-12-15T01:55:01.635Z,28.33
2017-12-15T01:57:29.856Z,27.97
2017-12-15T01:59:56.881Z,24.07
2017-12-15T02:02:23.259Z,23.83
2017-12-15T02:04:49.672Z,25.87
2017-12-15T02:07:16.194Z,24.20
2017-12-15T02:09:42.791Z,32.23
2017-12-15T02:12:09.316Z,24.50
2017-12-15T02:14:35.839Z,37.83
2017-12-15T02:19:53.375Z,29.60
2017-12-15T02:22:20.342Z,28.20
2017-12-15T02:24:46.749Z,32.43
2017-12-15T02:27:13.315Z,28.17
2017-12-15T02:29:39.749Z,26.10
2017-12-15T02:32:06.192Z,30.50
2017-12-15T02:34:32.658Z,31.80
2017-12-15T02:36:59.115Z,36.30
2017-12-15T02:39:25.560Z,30.50
2017-12-15T02:41:51.956Z,31.97
2017-12-15T02:44:18.624Z,24.70
2017-12-15T02:46:45.463Z,24.30
2017-12-15T02:49:12.650Z,32.67
2017-12-15T02:51:39.052Z,23.80
2017-12-15T02:54:05.485Z,35.20
2017-12-15T02:56:32.018Z,26.80
2017-12-15T02:58:59.178Z,27.03
2017-12-15T03:01:25.796Z,28.17
2017-12-15T03:03:53.020Z,29.10
2017-12-15T03:06:19.520Z,30.33
2017-12-15T03:08:46.743Z,26.73
2017-12-15T03:11:13.270Z,24.03
2017-12-15T03:13:40.529Z,33.33
2017-12-15T03:16:07.738Z,26.90
2017-12-15T03:18:34.140Z,31.00
2017-12-15T03:21:00.706Z,25.17
2017-12-15T03:23:27.415Z,30.97
2017-12-15T03:25:54.012Z,40.73
2017-12-15T03:28:20.367Z,29.20
2017-12-15T03:30:46.732Z,34.73
2017-12-15T03:33:13.687Z,30.20
2017-12-15T03:35:40.138Z,27.10
2017-12-15T03:38:08.540Z,33.23
2017-12-15T03:40:36.156Z,34.77
2017-12-15T03:43:02.656Z,30.30
2017-12-15T03:45:30.148Z,30.93
2017-12-15T03:47:57.368Z,30.20
2017-12-15T03:50:23.814Z,37.30
2017-12-15T03:52:50.183Z,32.67
2017-12-15T03:55:17.748Z,33.57
2017-12-15T03:57:44.313Z,36.17
2017-12-15T04:00:10.736Z,31.23
2017-12-15T04:02:37.217Z,31.73
2017-12-15T04:05:03.822Z,38.00
2017-12-15T04:07:30.322Z,27.97
2017-12-15T04:09:56.827Z,31.60
2017-12-15T04:12:23.290Z,34.07
2017-12-15T04:14:49.661Z,40.70
2017-12-15T04:17:16.089Z,35.90
2017-12-15T04:19:42.420Z,35.73
2017-12-15T04:22:08.895Z,29.03
2017-12-15T04:24:35.304Z,29.90
2017-12-15T04:27:02.440Z,41.20
2017-12-15T04:29:29.020Z,33.67
2017-12-15T04:31:55.908Z,34.10
2017-12-15T04:34:22.420Z,33.70
2017-12-15T04:36:49.337Z,36.40
2017-12-15T04:39:16.821Z,35.00
2017-12-15T04:41:44.128Z,36.40
2017-12-15T04:44:10.680Z,36.53
2017-12-15T04:46:38.705Z,53.90
2017-12-15T04:49:13.405Z,32.10
2017-12-15T04:51:41.951Z,35.10
2017-12-15T04:54:08.276Z,34.33
2017-12-15T04:56:34.672Z,44.53
2017-12-15T04:59:01.184Z,33.93
2017-12-15T05:01:27.935Z,34.60
2017-12-15T05:03:54.417Z,39.40
2017-12-15T05:06:20.894Z,38.43
2017-12-15T05:08:47.357Z,37.57
2017-12-15T05:11:13.848Z,38.87
2017-12-15T05:13:41.139Z,39.10
2017-12-15T05:16:07.957Z,37.33
2017-12-15T05:18:34.609Z,35.43
2017-12-15T05:21:02.504Z,40.83
2017-12-15T05:23:29.330Z,35.33
2017-12-15T05:25:55.763Z,33.10
2017-12-15T05:28:23.164Z,41.70
2017-12-15T05:30:49.650Z,33.70
2017-12-15T05:33:16.246Z,29.70
2017-12-15T05:35:42.829Z,32.30
2017-12-15T05:38:10.480Z,35.80
2017-12-15T05:40:38.370Z,45.77
2017-12-15T05:43:05.789Z,33.43
2017-12-15T05:45:36.289Z,39.80
2017-12-15T05:48:02.650Z,36.47
2017-12-15T05:50:29.537Z,41.23
2017-12-15T05:52:55.888Z,31.63
2017-12-15T05:55:22.444Z,28.60
2017-12-15T05:57:48.900Z,34.43
2017-12-15T06:00:15.417Z,33.77
2017-12-15T06:02:42.300Z,30.13
2017-12-15T06:05:08.840Z,30.57
2017-12-15T06:07:35.207Z,30.73
2017-12-15T06:10:01.617Z,38.83
2017-12-15T06:12:28.124Z,27.63
2017-12-15T06:14:55.489Z,41.10
2017-12-15T06:17:21.997Z,36.20
2017-12-15T06:19:48.968Z,31.57
2017-12-15T06:22:15.536Z,32.63
2017-12-15T06:24:41.941Z,35.40
2017-12-15T06:27:08.371Z,36.47
2017-12-15T06:29:34.776Z,31.47
2017-12-15T06:32:01.380Z,37.30
2017-12-15T06:34:27.853Z,36.53
2017-12-15T06:36:54.223Z,40.30
2017-12-15T06:39:21.425Z,32.03
2017-12-15T06:41:48.915Z,36.03
2017-12-15T06:44:16.310Z,32.83
2017-12-15T06:46:42.818Z,41.60
2017-12-15T06:49:09.404Z,42.80
2017-12-15T06:51:36.020Z,36.80
2017-12-15T06:54:02.511Z,41.07
2017-12-15T06:56:29.030Z,39.40
2017-12-15T06:58:56.199Z,39.80
2017-12-15T07:01:24.090Z,30.50
2017-12-15T07:03:50.595Z,32.30
2017-12-15T07:06:17.710Z,34.17
2017-12-15T07:08:45.210Z,38.13
2017-12-15T07:11:12.556Z,36.73
2017-12-15T07:13:38.997Z,36.50
2017-12-15T07:16:06.578Z,32.93
2017-12-15T07:18:34.216Z,58.53
2017-12-15T07:21:00.961Z,35.83
2017-12-15T07:23:28.010Z,33.47
2017-12-15T07:25:54.593Z,31.10
2017-12-15T07:28:21.482Z,36.97
2017-12-15T07:30:48.864Z,32.77
2017-12-15T07:33:16.823Z,42.40
2017-12-15T07:35:43.835Z,36.30
2017-12-15T07:38:11.328Z,32.67
2017-12-15T07:40:37.836Z,37.70
2017-12-15T07:43:04.314Z,34.13
2017-12-15T07:45:30.904Z,35.30
2017-12-15T07:47:58.773Z,39.90
2017-12-15T07:50:28.578Z,38.33
2017-12-15T07:52:55.144Z,34.87
2017-12-15T07:55:21.595Z,36.50
2017-12-15T07:57:47.957Z,33.77
2017-12-15T08:00:14.422Z,29.80
2017-12-15T08:02:40.976Z,30.17
2017-12-15T08:05:07.353Z,32.23
2017-12-15T08:07:33.751Z,32.00
2017-12-15T08:10:00.285Z,34.63
2017-12-15T08:12:26.712Z,31.27
2017-12-15T08:14:53.180Z,30.87
2017-12-15T08:17:19.792Z,32.37
2017-12-15T08:19:46.349Z,31.53
2017-12-15T08:22:12.778Z,34.97
2017-12-15T08:24:39.292Z,35.07
2017-12-15T08:27:06.385Z,33.13
2017-12-15T08:29:32.826Z,28.23
2017-12-15T08:31:59.424Z,32.47
2017-12-15T08:34:25.957Z,29.90
2017-12-15T08:36:52.606Z,28.07
2017-12-15T08:39:19.306Z,52.50
2017-12-15T08:41:45.667Z,32.27
2017-12-15T08:44:12.086Z,38.00
2017-12-15T08:46:38.499Z,37.60
2017-12-15T08:49:05.002Z,36.47
2017-12-15T08:51:31.340Z,31.27
2017-12-15T08:53:58.274Z,33.60
2017-12-15T08:56:24.800Z,35.73
2017-12-15T08:58:53.125Z,33.50
2017-12-15T09:01:21.665Z,28.43
2017-12-15T09:03:48.033Z,34.33
2017-12-15T09:06:15.461Z,30.10
2017-12-15T09:08:41.937Z,36.43
2017-12-15T09:11:08.432Z,26.03
2017-12-15T09:13:36.346Z,32.73
2017-12-15T09:16:03.102Z,25.70
2017-12-15T09:18:30.735Z,26.67
2017-12-15T09:20:57.273Z,28.87
2017-12-15T09:23:24.726Z,29.57
2017-12-15T09:25:52.972Z,34.73
2017-12-15T09:28:19.845Z,22.80
2017-12-15T09:30:46.639Z,31.93
2017-12-15T09:33:18.399Z,25.60
2017-12-15T09:35:45.316Z,30.10
2017-12-15T09:38:11.981Z,28.73
2017-12-15T09:40:38.561Z,29.93
2017-12-15T09:43:07.964Z,30.83
2017-12-15T09:45:34.918Z,38.63
2017-12-15T09:48:01.400Z,39.23
2017-12-15T09:50:27.919Z,26.20
2017-12-15T09:56:04.450Z,28.40
2017-12-15T09:58:44.510Z,31.33
2017-12-15T10:02:47.090Z,23.50
2017-12-15T10:05:13.764Z,33.23
2017-12-15T10:07:42.880Z,35.60
2017-12-15T10:10:11.028Z,30.17
2017-12-15T10:12:37.469Z,37.53
2017-12-15T10:15:04.883Z,28.10
2017-12-15T10:17:31.457Z,29.40
2017-12-15T10:19:57.861Z,32.57
2017-12-15T10:22:24.213Z,26.77
2017-12-15T10:24:50.691Z,32.93
2017-12-15T10:27:17.099Z,26.57
2017-12-15T10:29:43.447Z,26.13
2017-12-15T10:32:10.051Z,27.07
2017-12-15T10:34:37.540Z,31.90
2017-12-15T10:37:04.054Z,26.27
2017-12-15T10:39:30.588Z,30.43
2017-12-15T10:41:57.866Z,20.70
2017-12-15T10:44:24.263Z,26.57
2017-12-15T10:46:50.841Z,26.47
2017-12-15T10:49:17.230Z,30.10
2017-12-15T10:51:43.627Z,30.53
2017-12-15T10:54:10.401Z,32.97
2017-12-15T10:56:36.903Z,22.50
2017-12-15T10:59:03.792Z,28.00
2017-12-15T11:01:32.165Z,25.57
2017-12-15T11:03:58.993Z,34.13
2017-12-15T11:06:26.420Z,42.57
2017-12-15T11:08:53.125Z,23.97
2017-12-15T11:11:20.108Z,32.83
2017-12-15T11:13:47.335Z,29.10
2017-12-15T11:16:15.062Z,33.13
2017-12-15T11:18:42.980Z,31.13
2017-12-15T11:21:10.085Z,25.60
2017-12-15T11:23:37.884Z,27.03
2017-12-15T11:26:04.281Z,26.80
2017-12-15T11:28:30.846Z,30.67
2017-12-15T11:30:57.526Z,28.77
2017-12-15T11:33:24.692Z,23.00
2017-12-15T11:35:51.183Z,32.13
2017-12-15T11:38:17.893Z,30.27
2017-12-15T11:40:44.772Z,31.73
2017-12-15T11:43:11.216Z,27.30
2017-12-15T11:45:37.896Z,29.17
2017-12-15T11:48:04.622Z,32.87
2017-12-15T11:50:31.118Z,32.90
2017-12-15T11:52:57.937Z,21.80
2017-12-15T11:55:24.447Z,32.90
2017-12-15T11:57:50.927Z,20.27
2017-12-15T12:00:17.466Z,20.30
2017-12-15T12:02:44.654Z,26.10
2017-12-15T12:05:11.216Z,23.57
2017-12-15T12:07:37.814Z,26.67
2017-12-15T12:10:04.901Z,24.70
2017-12-15T12:12:31.321Z,23.70
2017-12-15T12:14:57.851Z,31.97
2017-12-15T12:17:24.471Z,22.70
2017-12-15T12:19:51.686Z,25.57
2017-12-15T12:22:18.599Z,24.73
2017-12-15T12:24:45.141Z,21.47
2017-12-15T12:27:11.628Z,23.97
2017-12-15T12:29:38.573Z,22.70
2017-12-15T12:32:05.078Z,29.17
2017-12-15T12:34:31.470Z,23.83
2017-12-15T12:36:57.984Z,19.20
2017-12-15T12:39:24.402Z,38.03
2017-12-15T12:41:50.770Z,24.80
2017-12-15T12:44:17.217Z,28.60
2017-12-15T12:46:43.676Z,26.53
2017-12-15T12:49:10.060Z,20.17
2017-12-15T12:51:36.503Z,22.67
2017-12-15T12:54:02.840Z,32.93
2017-12-15T12:56:29.224Z,27.33
2017-12-15T12:58:55.812Z,25.90
2017-12-15T13:01:22.290Z,32.07
2017-12-15T13:03:48.809Z,30.53
2017-12-15T13:06:16.878Z,29.57
2017-12-15T13:08:43.366Z,35.90
2017-12-15T13:11:10.010Z,33.47
2017-12-15T13:13:36.940Z,31.43
2017-12-15T13:16:04.094Z,32.10
2017-12-15T13:18:31.291Z,26.63
2017-12-15T13:20:58.129Z,38.57
2017-12-15T13:23:25.625Z,25.80
2017-12-15T13:25:53.398Z,30.07
2017-12-15T13:28:21.870Z,26.77
2017-12-15T13:30:48.247Z,32.50
2017-12-15T13:33:14.700Z,28.53
2017-12-15T13:35:41.740Z,30.40
2017-12-15T13:38:08.219Z,25.83
2017-12-15T13:40:34.638Z,34.87
2017-12-15T13:43:01.947Z,34.50
2017-12-15T13:45:28.817Z,44.70
2017-12-15T13:47:55.251Z,30.90
2017-12-15T13:50:21.862Z,29.37
2017-12-15T13:52:49.356Z,31.33
2017-12-15T13:55:16.620Z,35.83
2017-12-15T13:57:43.161Z,30.83
2017-12-15T14:00:10.512Z,35.37
2017-12-15T14:02:38.452Z,41.33
2017-12-15T14:05:05.289Z,35.57
2017-12-15T14:07:31.952Z,35.20
2017-12-15T14:09:59.125Z,36.50
2017-12-15T14:12:25.546Z,32.30
2017-12-15T14:14:51.948Z,33.83
2017-12-15T14:17:18.446Z,30.10
2017-12-15T14:19:44.922Z,34.33
2017-12-15T14:22:12.096Z,37.70
2017-12-15T14:24:38.769Z,31.17
2017-12-15T14:27:05.579Z,36.17
2017-12-15T14:29:32.324Z,45.33
2017-12-15T14:31:58.868Z,33.73
2017-12-15T14:34:25.306Z,30.67
2017-12-15T14:36:52.422Z,33.40
2017-12-15T14:39:18.973Z,45.80
2017-12-15T14:41:46.560Z,33.90
2017-12-15T14:44:14.752Z,31.97
2017-12-15T14:46:41.590Z,35.80
2017-12-15T14:49:08.220Z,38.37
2017-12-15T14:51:34.802Z,34.00
2017-12-15T14:54:01.319Z,47.67
2017-12-15T14:56:30.171Z,30.33
2017-12-15T14:58:56.683Z,35.90
2017-12-15T15:01:25.017Z,39.33
2017-12-15T15:03:51.401Z,37.50
2017-12-15T15:06:18.569Z,32.90
2017-12-15T15:08:45.577Z,38.83
2017-12-15T15:11:12.108Z,41.50
2017-12-15T15:13:38.564Z,46.03
2017-12-15T15:16:05.870Z,33.80
2017-12-15T15:18:33.599Z,42.43
2017-12-15T15:21:00.708Z,36.40
2017-12-15T15:23:28.650Z,41.23
2017-12-15T15:25:55.706Z,37.40
2017-12-15T15:28:22.354Z,35.73
2017-12-15T15:30:48.874Z,43.53
2017-12-15T15:33:15.609Z,36.40
2017-12-15T15:35:42.239Z,40.23
2017-12-15T15:38:09.022Z,34.87
2017-12-15T15:40:36.767Z,40.13
2017-12-15T15:43:04.919Z,33.10
2017-12-15T15:45:31.536Z,37.27
2017-12-15T15:47:59.311Z,30.77
2017-12-15T15:50:25.777Z,33.50
2017-12-15T15:52:52.217Z,34.77
2017-12-15T15:55:18.703Z,35.53
2017-12-15T15:57:45.150Z,41.80
2017-12-15T16:00:11.774Z,49.40
2017-12-15T16:02:38.365Z,46.87
2017-12-15T16:05:04.950Z,43.00
2017-12-15T16:07:33.174Z,44.37
2017-12-15T16:10:00.436Z,45.10
2017-12-15T16:12:27.105Z,49.10
2017-12-15T16:14:53.935Z,46.30
2017-12-15T16:17:20.461Z,43.53
2017-12-15T16:19:46.918Z,45.37
2017-12-15T16:22:13.332Z,52.33
2017-12-15T16:24:40.326Z,47.03
2017-12-15T16:27:07.536Z,42.90
2017-12-15T16:29:34.249Z,51.20
2017-12-15T16:32:00.888Z,41.60
2017-12-15T16:34:27.686Z,49.10
2017-12-15T16:36:56.372Z,47.63
2017-12-15T16:39:22.981Z,40.47
2017-12-15T16:41:49.453Z,37.07
2017-12-15T16:44:16.294Z,54.50
2017-12-15T16:46:42.851Z,51.90
2017-12-15T16:49:09.312Z,47.70
2017-12-15T16:51:35.935Z,51.43
2017-12-15T16:54:03.643Z,46.40
2017-12-15T16:56:30.309Z,46.70
2017-12-15T16:58:57.076Z,63.23
2017-12-15T17:01:28.049Z,54.70
2017-12-15T17:03:55.752Z,50.13
2017-12-15T17:06:23.620Z,56.40
2017-12-15T17:08:51.255Z,45.03
2017-12-15T17:11:18.516Z,56.23
2017-12-15T17:13:46.115Z,46.07
2017-12-15T17:16:13.765Z,41.93
2017-12-15T17:18:40.429Z,61.80
2017-12-15T17:21:07.817Z,49.23
2017-12-15T17:23:34.501Z,56.27
2017-12-15T17:26:00.915Z,55.03
2017-12-15T17:28:27.321Z,47.30
2017-12-15T17:30:54.033Z,44.90
2017-12-15T17:33:20.748Z,53.60
2017-12-15T17:35:47.269Z,56.83
2017-12-15T17:38:13.822Z,50.07
2017-12-15T17:40:40.786Z,62.13
2017-12-15T17:43:11.278Z,52.40
2017-12-15T17:45:37.908Z,50.70
2017-12-15T17:48:04.533Z,58.93
2017-12-15T17:50:31.129Z,63.20
2017-12-15T17:52:57.912Z,54.63
2017-12-15T17:55:25.045Z,49.87
2017-12-15T17:57:52.345Z,51.27
2017-12-15T18:00:20.911Z,54.53
2017-12-15T18:02:48.025Z,40.70
2017-12-15T18:05:15.082Z,54.97
2017-12-15T18:07:41.683Z,41.10
2017-12-15T18:10:08.383Z,49.30
2017-12-15T18:12:35.862Z,50.43
2017-12-15T18:15:02.660Z,49.73
2017-12-15T18:17:29.458Z,57.40
2017-12-15T18:19:56.253Z,54.37
2017-12-15T18:22:22.969Z,49.70
2017-12-15T18:24:50.402Z,41.53
2017-12-15T18:27:16.937Z,45.40
2017-12-15T18:29:43.648Z,47.30
2017-12-15T18:32:11.025Z,68.70
2017-12-15T18:34:37.633Z,44.47
2017-12-15T18:37:04.170Z,56.13
2017-12-15T18:39:30.583Z,45.03
2017-12-15T18:41:57.309Z,55.00
2017-12-15T18:44:23.808Z,59.03
2017-12-15T18:46:50.641Z,51.93
2017-12-15T18:49:17.556Z,51.70
2017-12-15T18:51:45.280Z,52.20
2017-12-15T18:54:12.576Z,53.90
2017-12-15T18:56:39.393Z,44.10
2017-12-15T18:59:06.840Z,46.47
2017-12-15T19:01:33.379Z,52.03
2017-12-15T19:04:00.203Z,52.33
2017-12-15T19:06:27.309Z,56.27
2017-12-15T19:08:54.026Z,55.03
2017-12-15T19:11:20.867Z,58.27
2017-12-15T19:13:47.640Z,49.00
2017-12-15T19:16:15.169Z,38.90
2017-12-15T19:18:44.758Z,50.50
2017-12-15T19:21:11.737Z,40.17
2017-12-15T19:23:38.451Z,56.47
2017-12-15T19:26:05.233Z,49.77
2017-12-15T19:28:32.705Z,44.77
2017-12-15T19:30:59.592Z,40.83
2017-12-15T19:33:27.272Z,50.10
2017-12-15T19:35:55.682Z,48.93
2017-12-15T19:38:23.130Z,60.50
2017-12-15T19:40:50.188Z,50.00
2017-12-15T19:43:16.933Z,59.97
2017-12-15T19:45:43.761Z,49.93
2017-12-15T19:48:10.399Z,47.23
2017-12-15T19:50:38.061Z,55.83
2017-12-15T19:53:04.726Z,46.70
2017-12-15T19:55:31.778Z,51.83
2017-12-15T19:57:58.375Z,49.10
2017-12-15T20:00:24.883Z,49.93
2017-12-15T20:02:51.394Z,49.73
2017-12-15T20:05:18.664Z,45.73
2017-12-15T20:07:45.229Z,52.07
2017-12-15T20:10:12.534Z,53.27
2017-12-15T20:12:39.902Z,49.13
2017-12-15T20:15:06.860Z,47.67
2017-12-15T20:17:33.861Z,48.00
2017-12-15T20:20:01.081Z,53.10
2017-12-15T20:22:29.844Z,48.40
2017-12-15T20:24:56.644Z,43.43
2017-12-15T20:27:23.146Z,39.23
2017-12-15T20:29:53.667Z,63.87
2017-12-15T20:32:20.367Z,46.83
2017-12-15T20:34:46.895Z,47.70
2017-12-15T20:37:13.999Z,43.40
2017-12-15T20:39:40.513Z,52.70
2017-12-15T20:42:08.790Z,47.60
2017-12-15T20:44:36.334Z,60.17
2017-12-15T20:47:03.660Z,37.97
2017-12-15T20:49:30.441Z,51.87
2017-12-15T20:52:01.295Z,55.63
2017-12-15T20:54:28.454Z,50.63
2017-12-15T20:56:55.611Z,45.70
2017-12-15T20:59:22.918Z,44.53
2017-12-15T21:01:50.313Z,39.47
2017-12-15T21:04:17.680Z,47.63
2017-12-15T21:06:44.095Z,45.67
2017-12-15T21:09:10.543Z,46.83
2017-12-15T21:11:37.087Z,43.27
2017-12-15T21:14:04.348Z,40.33
2017-12-15T21:16:31.333Z,43.90
2017-12-15T21:18:57.812Z,45.90
2017-12-15T21:21:24.314Z,45.63
2017-12-15T21:23:50.785Z,57.87
2017-12-15T21:26:17.472Z,35.23
2017-12-15T21:28:43.983Z,31.70
2017-12-15T21:31:10.467Z,43.93
2017-12-15T21:33:37.109Z,51.30
2017-12-15T21:36:03.688Z,49.53
2017-12-15T21:38:30.203Z,34.97
2017-12-15T21:40:56.679Z,56.30
2017-12-15T21:43:23.894Z,53.30
2017-12-15T21:45:50.395Z,46.47
2017-12-15T21:48:18.842Z,56.83
2017-12-15T21:50:45.961Z,53.57
2017-12-15T21:53:12.430Z,45.10
2017-12-15T21:55:39.640Z,42.47
2017-12-15T21:58:06.019Z,43.70
2017-12-15T22:00:32.514Z,51.03
2017-12-15T22:02:59.919Z,53.23
2017-12-15T22:05:27.083Z,47.37
2017-12-15T22:07:53.546Z,39.23
2017-12-15T22:10:20.183Z,48.40
2017-12-15T22:12:46.720Z,45.27
2017-12-15T22:15:14.362Z,58.80
2017-12-15T22:17:41.221Z,47.77
2017-12-15T22:20:08.736Z,62.20
2017-12-15T22:22:35.241Z,48.03
2017-12-15T22:25:01.747Z,49.40
2017-12-15T22:27:28.973Z,61.97
2017-12-15T22:29:55.543Z,40.87
2017-12-15T22:32:22.118Z,57.80
2017-12-15T22:34:48.601Z,60.10
2017-12-15T22:37:15.036Z,61.40
2017-12-15T22:39:41.545Z,56.53
2017-12-15T22:42:08.045Z,51.07
2017-12-15T22:44:35.466Z,50.33
2017-12-15T22:47:03.260Z,35.73
2017-12-15T22:49:30.919Z,31.43
2017-12-15T22:51:57.631Z,42.03
2017-12-15T22:54:24.061Z,50.43
2017-12-15T22:56:50.481Z,49.90
2017-12-15T22:59:16.882Z,34.00
2017-12-15T23:01:43.399Z,41.60
2017-12-15T23:04:10.857Z,42.43
2017-12-15T23:06:37.581Z,45.67
2017-12-15T23:09:06.091Z,48.70
2017-12-15T23:11:33.303Z,58.77
2017-12-15T23:14:02.005Z,47.67
2017-12-15T23:16:29.299Z,43.13
2017-12-15T23:18:55.973Z,48.20
2017-12-15T23:21:22.419Z,52.37
2017-12-15T23:23:48.886Z,40.47
2017-12-15T23:26:15.282Z,61.10
2017-12-15T23:28:42.588Z,45.40
2017-12-15T23:31:09.140Z,46.10
2017-12-15T23:33:36.014Z,43.63
2017-12-15T23:36:02.545Z,53.83
2017-12-15T23:38:28.980Z,38.07
2017-12-15T23:40:56.688Z,49.33
2017-12-15T23:43:25.946Z,39.90
2017-12-15T23:45:53.444Z,51.90
2017-12-15T23:48:20.498Z,49.10
2017-12-15T23:50:47.324Z,45.60
2017-12-15T23:53:13.940Z,53.67
2017-12-15T23:55:52.573Z,49.80
2017-12-15T23:58:20.631Z,52.77
